Terminal Aerodrome Forecast
Issued by NWS Louisville, KY

Home | Current Version | Previous Version | Text Only | Print | Product List | Glossary On
Versions: 1 2 3 4 5 6 7 8 9 10 11 12 13 14 15 16 17 18 19 20 21 22 23 24 25 26
747
FTUS43 KLMK 162233 AAB
TAFBWG
TAF AMD
KBWG 162233Z 1623/1718 17007KT 6SM -SHRA SCT050 BKN110
     FM170500 18010KT 4SM -SHRA VCTS OVC025CB
     FM170800 19010KT 4SM -SHRA VCTS OVC015CB
     FM171100 20011KT 6SM -SHRA VCTS OVC008CB
     FM171300 21012G17KT 6SM BR VCSH OVC008
     FM171600 23011G18KT P6SM OVC015=

USA.gov is the U.S. government's official web portal to all federal, state and local government web resources and services.